sensor_id;sensor_type;location;lat;lon;timestamp;temperature;humidity
52285;DHT22;38238;53.304;6.606;2022-08-02T00:01:23;14.10;99.90
52285;DHT22;38238;53.304;6.606;2022-08-02T00:03:49;14.10;99.90
52285;DHT22;38238;53.304;6.606;2022-08-02T00:06:14;14.10;99.90
52285;DHT22;38238;53.304;6.606;2022-08-02T00:08:40;14.10;99.90
52285;DHT22;38238;53.304;6.606;2022-08-02T00:11:06;14.20;99.90
52285;DHT22;38238;53.304;6.606;2022-08-02T00:13:31;14.10;99.90
52285;DHT22;38238;53.304;6.606;2022-08-02T00:15:57;14.10;99.90
52285;DHT22;38238;53.304;6.606;2022-08-02T00:18:23;14.10;99.90
52285;DHT22;38238;53.304;6.606;2022-08-02T00:20:49;14.00;99.90
52285;DHT22;38238;53.304;6.606;2022-08-02T00:23:14;14.00;99.90
52285;DHT22;38238;53.304;6.606;2022-08-02T00:25:40;14.00;99.90
52285;DHT22;38238;53.304;6.606;2022-08-02T00:28:06;14.00;99.90
52285;DHT22;38238;53.304;6.606;2022-08-02T00:30:31;13.90;99.90
52285;DHT22;38238;53.304;6.606;2022-08-02T00:32:57;13.90;99.90
52285;DHT22;38238;53.304;6.606;2022-08-02T00:35:23;13.90;99.90
52285;DHT22;38238;53.304;6.606;2022-08-02T00:37:49;13.90;99.90
52285;DHT22;38238;53.304;6.606;2022-08-02T00:40:15;13.80;99.90
52285;DHT22;38238;53.304;6.606;2022-08-02T00:42:40;13.80;99.90
52285;DHT22;38238;53.304;6.606;2022-08-02T00:45:07;13.80;99.90
52285;DHT22;38238;53.304;6.606;2022-08-02T00:47:33;13.80;99.90
52285;DHT22;38238;53.304;6.606;2022-08-02T00:49:58;13.80;99.90
52285;DHT22;38238;53.304;6.606;2022-08-02T00:52:24;13.70;99.90
52285;DHT22;38238;53.304;6.606;2022-08-02T00:54:50;13.80;99.90
52285;DHT22;38238;53.304;6.606;2022-08-02T00:57:15;13.70;99.90
52285;DHT22;38238;53.304;6.606;2022-08-02T00:59:41;13.80;99.90
52285;DHT22;38238;53.304;6.606;2022-08-02T01:02:07;13.70;99.90
52285;DHT22;38238;53.304;6.606;2022-08-02T01:04:33;13.60;99.90
52285;DHT22;38238;53.304;6.606;2022-08-02T01:07:00;13.50;99.90
52285;DHT22;38238;53.304;6.606;2022-08-02T01:09:26;13.50;99.90
52285;DHT22;38238;53.304;6.606;2022-08-02T01:11:51;13.50;99.90
52285;DHT22;38238;53.304;6.606;2022-08-02T01:14:18;13.50;99.90
52285;DHT22;38238;53.304;6.606;2022-08-02T01:17:05;13.40;99.90
52285;DHT22;38238;53.304;6.606;2022-08-02T01:19:56;13.40;99.90
52285;DHT22;38238;53.304;6.606;2022-08-02T01:22:37;13.30;99.90
52285;DHT22;38238;53.304;6.606;2022-08-02T01:25:39;13.30;99.90
52285;DHT22;38238;53.304;6.606;2022-08-02T01:28:10;13.30;99.90
52285;DHT22;38238;53.304;6.606;2022-08-02T01:30:43;13.30;99.90
52285;DHT22;38238;53.304;6.606;2022-08-02T01:33:16;13.20;99.90
52285;DHT22;38238;53.304;6.606;2022-08-02T01:35:45;13.20;99.90
52285;DHT22;38238;53.304;6.606;2022-08-02T01:38:28;13.20;99.90
52285;DHT22;38238;53.304;6.606;2022-08-02T01:40:56;13.30;99.90
52285;DHT22;38238;53.304;6.606;2022-08-02T01:43:24;13.40;99.90
52285;DHT22;38238;53.304;6.606;2022-08-02T01:45:52;13.20;99.90
52285;DHT22;38238;53.304;6.606;2022-08-02T01:48:18;13.20;99.90
52285;DHT22;38238;53.304;6.606;2022-08-02T01:50:46;13.20;99.90
52285;DHT22;38238;53.304;6.606;2022-08-02T01:53:13;13.20;99.90
52285;DHT22;38238;53.304;6.606;2022-08-02T01:55:43;13.10;99.90
52285;DHT22;38238;53.304;6.606;2022-08-02T01:58:10;13.00;99.90
52285;DHT22;38238;53.304;6.606;2022-08-02T02:00:40;13.00;99.90
52285;DHT22;38238;53.304;6.606;2022-08-02T02:03:27;13.00;99.90
52285;DHT22;38238;53.304;6.606;2022-08-02T02:05:56;13.00;99.90
52285;DHT22;38238;53.304;6.606;2022-08-02T02:08:28;13.00;99.90
52285;DHT22;38238;53.304;6.606;2022-08-02T02:10:56;13.00;99.90
52285;DHT22;38238;53.304;6.606;2022-08-02T02:13:23;12.90;99.90
52285;DHT22;38238;53.304;6.606;2022-08-02T02:15:50;12.90;99.90
52285;DHT22;38238;53.304;6.606;2022-08-02T02:18:20;12.80;99.90
52285;DHT22;38238;53.304;6.606;2022-08-02T02:20:47;12.80;99.90
52285;DHT22;38238;53.304;6.606;2022-08-02T02:23:13;12.80;99.90
52285;DHT22;38238;53.304;6.606;2022-08-02T02:25:40;12.80;99.90
52285;DHT22;38238;53.304;6.606;2022-08-02T02:28:10;12.80;99.90
52285;DHT22;38238;53.304;6.606;2022-08-02T02:30:39;12.90;99.90
52285;DHT22;38238;53.304;6.606;2022-08-02T02:33:07;12.90;99.90
52285;DHT22;38238;53.304;6.606;2022-08-02T02:35:36;13.00;99.90
52285;DHT22;38238;53.304;6.606;2022-08-02T02:38:04;13.10;99.90
52285;DHT22;38238;53.304;6.606;2022-08-02T02:40:31;12.90;99.90
52285;DHT22;38238;53.304;6.606;2022-08-02T02:42:59;12.80;99.90
52285;DHT22;38238;53.304;6.606;2022-08-02T02:45:27;12.80;99.90
52285;DHT22;38238;53.304;6.606;2022-08-02T02:47:54;12.80;99.90
52285;DHT22;38238;53.304;6.606;2022-08-02T02:50:21;12.70;99.90
52285;DHT22;38238;53.304;6.606;2022-08-02T02:52:48;12.70;99.90
52285;DHT22;38238;53.304;6.606;2022-08-02T02:55:15;12.60;99.90
52285;DHT22;38238;53.304;6.606;2022-08-02T02:57:43;12.60;99.90
52285;DHT22;38238;53.304;6.606;2022-08-02T03:00:12;12.60;99.90
52285;DHT22;38238;53.304;6.606;2022-08-02T03:02:38;12.50;99.90
52285;DHT22;38238;53.304;6.606;2022-08-02T03:05:08;12.50;99.90
52285;DHT22;38238;53.304;6.606;2022-08-02T03:07:36;12.50;99.90
52285;DHT22;38238;53.304;6.606;2022-08-02T03:10:03;12.50;99.90
52285;DHT22;38238;53.304;6.606;2022-08-02T03:12:30;12.50;99.90
52285;DHT22;38238;53.304;6.606;2022-08-02T03:14:58;12.40;99.90
52285;DHT22;38238;53.304;6.606;2022-08-02T03:17:24;12.50;99.90
52285;DHT22;38238;53.304;6.606;2022-08-02T03:19:49;12.40;99.90
52285;DHT22;38238;53.304;6.606;2022-08-02T03:22:15;12.40;99.90
52285;DHT22;38238;53.304;6.606;2022-08-02T03:24:40;13.00;99.90
52285;DHT22;38238;53.304;6.606;2022-08-02T03:27:06;12.40;99.90
52285;DHT22;38238;53.304;6.606;2022-08-02T03:29:32;12.40;99.90
52285;DHT22;38238;53.304;6.606;2022-08-02T03:31:58;12.40;99.90
52285;DHT22;38238;53.304;6.606;2022-08-02T03:34:23;12.40;99.90
52285;DHT22;38238;53.304;6.606;2022-08-02T03:36:51;12.40;99.90
52285;DHT22;38238;53.304;6.606;2022-08-02T03:39:19;12.40;99.90
52285;DHT22;38238;53.304;6.606;2022-08-02T03:41:47;12.60;99.90
52285;DHT22;38238;53.304;6.606;2022-08-02T03:44:15;12.50;99.90
52285;DHT22;38238;53.304;6.606;2022-08-02T03:46:41;12.50;99.90
52285;DHT22;38238;53.304;6.606;2022-08-02T03:49:07;12.50;99.90
52285;DHT22;38238;53.304;6.606;2022-08-02T03:51:35;12.50;99.90
52285;DHT22;38238;53.304;6.606;2022-08-02T03:54:02;12.40;99.90
52285;DHT22;38238;53.304;6.606;2022-08-02T03:56:28;12.40;99.90
52285;DHT22;38238;53.304;6.606;2022-08-02T03:59:08;12.40;99.90
52285;DHT22;38238;53.304;6.606;2022-08-02T04:01:34;12.40;99.90
52285;DHT22;38238;53.304;6.606;2022-08-02T04:03:59;12.50;99.90
52285;DHT22;38238;53.304;6.606;2022-08-02T04:06:25;12.60;99.90
52285;DHT22;38238;53.304;6.606;2022-08-02T04:08:51;12.50;99.90
52285;DHT22;38238;53.304;6.606;2022-08-02T04:11:17;12.50;99.90
52285;DHT22;38238;53.304;6.606;2022-08-02T04:14:05;12.50;99.90
52285;DHT22;38238;53.304;6.606;2022-08-02T04:16:44;12.50;99.90
52285;DHT22;38238;53.304;6.606;2022-08-02T04:19:27;12.50;99.90
52285;DHT22;38238;53.304;6.606;2022-08-02T04:21:55;12.50;99.90
52285;DHT22;38238;53.304;6.606;2022-08-02T04:24:28;12.50;99.90
52285;DHT22;38238;53.304;6.606;2022-08-02T04:26:58;12.50;99.90
52285;DHT22;38238;53.304;6.606;2022-08-02T04:29:25;12.60;99.90
52285;DHT22;38238;53.304;6.606;2022-08-02T04:31:52;12.60;99.90
52285;DHT22;38238;53.304;6.606;2022-08-02T04:34:19;12.60;99.90
52285;DHT22;38238;53.304;6.606;2022-08-02T04:36:45;12.60;99.90
52285;DHT22;38238;53.304;6.606;2022-08-02T04:39:12;12.60;99.90
52285;DHT22;38238;53.304;6.606;2022-08-02T04:41:42;13.00;99.90
52285;DHT22;38238;53.304;6.606;2022-08-02T04:44:08;12.70;99.90
52285;DHT22;38238;53.304;6.606;2022-08-02T04:46:35;12.80;99.90
52285;DHT22;38238;53.304;6.606;2022-08-02T04:49:01;12.80;99.90
52285;DHT22;38238;53.304;6.606;2022-08-02T04:51:27;12.80;99.90
52285;DHT22;38238;53.304;6.606;2022-08-02T04:53:52;12.80;99.90
52285;DHT22;38238;53.304;6.606;2022-08-02T04:56:18;12.90;99.90
52285;DHT22;38238;53.304;6.606;2022-08-02T04:58:44;13.00;99.90
52285;DHT22;38238;53.304;6.606;2022-08-02T05:01:10;13.00;99.90
52285;DHT22;38238;53.304;6.606;2022-08-02T05:03:35;13.00;99.90
52285;DHT22;38238;53.304;6.606;2022-08-02T05:06:01;13.10;99.90
52285;DHT22;38238;53.304;6.606;2022-08-02T05:08:27;13.10;99.90
52285;DHT22;38238;53.304;6.606;2022-08-02T05:10:52;13.20;99.90
52285;DHT22;38238;53.304;6.606;2022-08-02T05:13:18;13.20;99.90
52285;DHT22;38238;53.304;6.606;2022-08-02T05:15:47;13.30;99.90
52285;DHT22;38238;53.304;6.606;2022-08-02T05:18:13;13.40;99.90
52285;DHT22;38238;53.304;6.606;2022-08-02T05:20:39;13.40;99.90
52285;DHT22;38238;53.304;6.606;2022-08-02T05:23:05;13.50;99.90
52285;DHT22;38238;53.304;6.606;2022-08-02T05:25:30;13.60;99.90
52285;DHT22;38238;53.304;6.606;2022-08-02T05:27:56;13.70;99.90
52285;DHT22;38238;53.304;6.606;2022-08-02T05:30:22;13.70;99.90
52285;DHT22;38238;53.304;6.606;2022-08-02T05:32:49;13.80;99.90
52285;DHT22;38238;53.304;6.606;2022-08-02T05:35:18;13.90;99.90
52285;DHT22;38238;53.304;6.606;2022-08-02T05:37:45;14.00;99.90
52285;DHT22;38238;53.304;6.606;2022-08-02T05:40:11;14.10;99.90
52285;DHT22;38238;53.304;6.606;2022-08-02T05:42:37;14.20;99.90
52285;DHT22;38238;53.304;6.606;2022-08-02T05:45:04;14.30;99.90
52285;DHT22;38238;53.304;6.606;2022-08-02T05:47:29;14.30;99.90
52285;DHT22;38238;53.304;6.606;2022-08-02T05:49:55;14.40;99.90
52285;DHT22;38238;53.304;6.606;2022-08-02T05:52:24;13.30;99.90
52285;DHT22;38238;53.304;6.606;2022-08-02T05:57:24;14.50;99.90
52285;DHT22;38238;53.304;6.606;2022-08-02T06:00:06;14.50;99.90
52285;DHT22;38238;53.304;6.606;2022-08-02T06:05:19;14.60;99.90
52285;DHT22;38238;53.304;6.606;2022-08-02T06:07:47;14.70;99.90
52285;DHT22;38238;53.304;6.606;2022-08-02T06:10:16;14.70;99.90
52285;DHT22;38238;53.304;6.606;2022-08-02T06:13:12;14.80;99.90
52285;DHT22;38238;53.304;6.606;2022-08-02T06:15:39;14.90;99.90
52285;DHT22;38238;53.304;6.606;2022-08-02T06:18:05;15.00;99.90
52285;DHT22;38238;53.304;6.606;2022-08-02T06:20:32;15.00;99.90
52285;DHT22;38238;53.304;6.606;2022-08-02T06:23:03;15.10;99.90
52285;DHT22;38238;53.304;6.606;2022-08-02T06:25:31;15.20;99.90
52285;DHT22;38238;53.304;6.606;2022-08-02T06:28:03;15.40;99.90
52285;DHT22;38238;53.304;6.606;2022-08-02T06:30:29;15.50;99.90
52285;DHT22;38238;53.304;6.606;2022-08-02T06:32:56;15.60;99.90
52285;DHT22;38238;53.304;6.606;2022-08-02T06:35:31;15.80;99.90
52285;DHT22;38238;53.304;6.606;2022-08-02T06:38:02;15.90;99.90
52285;DHT22;38238;53.304;6.606;2022-08-02T06:40:42;16.00;99.90
52285;DHT22;38238;53.304;6.606;2022-08-02T06:43:11;16.10;99.90
52285;DHT22;38238;53.304;6.606;2022-08-02T06:45:41;16.20;99.90
52285;DHT22;38238;53.304;6.606;2022-08-02T06:48:07;16.40;99.90
52285;DHT22;38238;53.304;6.606;2022-08-02T06:50:34;16.40;99.90
52285;DHT22;38238;53.304;6.606;2022-08-02T06:53:00;16.50;99.90
52285;DHT22;38238;53.304;6.606;2022-08-02T06:55:26;16.60;99.90
52285;DHT22;38238;53.304;6.606;2022-08-02T06:57:53;16.70;99.90
52285;DHT22;38238;53.304;6.606;2022-08-02T07:00:19;16.80;99.90
52285;DHT22;38238;53.304;6.606;2022-08-02T07:02:45;16.90;99.90
52285;DHT22;38238;53.304;6.606;2022-08-02T07:05:10;17.00;99.90
52285;DHT22;38238;53.304;6.606;2022-08-02T07:07:36;17.10;99.90
52285;DHT22;38238;53.304;6.606;2022-08-02T07:10:02;17.20;99.90
52285;DHT22;38238;53.304;6.606;2022-08-02T07:12:30;17.40;99.90
52285;DHT22;38238;53.304;6.606;2022-08-02T07:14:56;17.50;99.90
52285;DHT22;38238;53.304;6.606;2022-08-02T07:17:22;17.60;99.90
52285;DHT22;38238;53.304;6.606;2022-08-02T07:19:48;17.70;99.90
52285;DHT22;38238;53.304;6.606;2022-08-02T07:22:14;17.80;99.90
52285;DHT22;38238;53.304;6.606;2022-08-02T07:24:39;17.80;99.90
52285;DHT22;38238;53.304;6.606;2022-08-02T07:27:05;17.90;99.90
52285;DHT22;38238;53.304;6.606;2022-08-02T07:29:31;18.00;99.90
52285;DHT22;38238;53.304;6.606;2022-08-02T07:31:57;18.00;99.90
52285;DHT22;38238;53.304;6.606;2022-08-02T07:34:23;18.10;99.90
52285;DHT22;38238;53.304;6.606;2022-08-02T07:36:48;18.10;99.90
52285;DHT22;38238;53.304;6.606;2022-08-02T07:39:14;18.20;99.90
52285;DHT22;38238;53.304;6.606;2022-08-02T07:41:40;18.30;99.90
52285;DHT22;38238;53.304;6.606;2022-08-02T07:44:05;18.40;99.90
52285;DHT22;38238;53.304;6.606;2022-08-02T07:46:31;18.50;99.90
52285;DHT22;38238;53.304;6.606;2022-08-02T07:48:58;18.60;99.90
52285;DHT22;38238;53.304;6.606;2022-08-02T07:51:23;18.70;99.90
52285;DHT22;38238;53.304;6.606;2022-08-02T07:53:49;18.80;99.90
52285;DHT22;38238;53.304;6.606;2022-08-02T07:56:15;18.90;99.90
52285;DHT22;38238;53.304;6.606;2022-08-02T07:58:41;19.00;99.90
52285;DHT22;38238;53.304;6.606;2022-08-02T08:01:07;19.10;99.90
52285;DHT22;38238;53.304;6.606;2022-08-02T08:03:33;19.20;99.90
52285;DHT22;38238;53.304;6.606;2022-08-02T08:05:59;19.30;99.90
52285;DHT22;38238;53.304;6.606;2022-08-02T08:08:25;19.40;99.90
52285;DHT22;38238;53.304;6.606;2022-08-02T08:10:50;19.60;99.90
52285;DHT22;38238;53.304;6.606;2022-08-02T08:13:16;19.70;99.90
52285;DHT22;38238;53.304;6.606;2022-08-02T08:15:42;19.80;99.90
52285;DHT22;38238;53.304;6.606;2022-08-02T08:18:08;19.90;99.90
52285;DHT22;38238;53.304;6.606;2022-08-02T08:20:34;20.00;99.90
52285;DHT22;38238;53.304;6.606;2022-08-02T08:23:00;20.10;99.90
52285;DHT22;38238;53.304;6.606;2022-08-02T08:25:25;20.20;99.90
52285;DHT22;38238;53.304;6.606;2022-08-02T08:27:51;20.30;99.90
52285;DHT22;38238;53.304;6.606;2022-08-02T08:30:20;20.40;99.90
52285;DHT22;38238;53.304;6.606;2022-08-02T08:32:46;20.60;99.90
52285;DHT22;38238;53.304;6.606;2022-08-02T08:35:12;20.70;99.90
52285;DHT22;38238;53.304;6.606;2022-08-02T08:37:39;20.90;99.80
52285;DHT22;38238;53.304;6.606;2022-08-02T08:40:05;20.90;99.30
52285;DHT22;38238;53.304;6.606;2022-08-02T08:42:32;21.00;98.90
52285;DHT22;38238;53.304;6.606;2022-08-02T08:44:58;21.20;98.90
52285;DHT22;38238;53.304;6.606;2022-08-02T08:47:36;21.30;98.70
52285;DHT22;38238;53.304;6.606;2022-08-02T08:50:08;21.50;98.70
52285;DHT22;38238;53.304;6.606;2022-08-02T08:52:42;22.00;98.20
52285;DHT22;38238;53.304;6.606;2022-08-02T08:55:13;22.40;97.60
52285;DHT22;38238;53.304;6.606;2022-08-02T08:57:41;22.80;97.10
52285;DHT22;38238;53.304;6.606;2022-08-02T09:00:09;23.20;96.40
52285;DHT22;38238;53.304;6.606;2022-08-02T09:02:35;23.50;95.80
52285;DHT22;38238;53.304;6.606;2022-08-02T09:05:01;23.70;95.40
52285;DHT22;38238;53.304;6.606;2022-08-02T09:07:27;23.80;95.20
52285;DHT22;38238;53.304;6.606;2022-08-02T09:09:53;23.90;93.90
52285;DHT22;38238;53.304;6.606;2022-08-02T09:12:19;24.00;93.20
52285;DHT22;38238;53.304;6.606;2022-08-02T09:14:49;24.30;92.90
52285;DHT22;38238;53.304;6.606;2022-08-02T09:17:15;24.40;92.90
52285;DHT22;38238;53.304;6.606;2022-08-02T09:19:40;24.60;92.70
52285;DHT22;38238;53.304;6.606;2022-08-02T09:22:09;24.80;92.00
52285;DHT22;38238;53.304;6.606;2022-08-02T09:24:42;24.90;91.60
52285;DHT22;38238;53.304;6.606;2022-08-02T09:27:17;24.90;91.10
52285;DHT22;38238;53.304;6.606;2022-08-02T09:29:51;25.00;91.40
52285;DHT22;38238;53.304;6.606;2022-08-02T09:32:17;25.20;90.90
52285;DHT22;38238;53.304;6.606;2022-08-02T09:34:48;25.30;91.30
52285;DHT22;38238;53.304;6.606;2022-08-02T09:37:27;25.30;90.60
52285;DHT22;38238;53.304;6.606;2022-08-02T09:39:54;25.20;90.30
52285;DHT22;38238;53.304;6.606;2022-08-02T09:42:20;25.40;91.00
52285;DHT22;38238;53.304;6.606;2022-08-02T09:44:59;25.60;91.10
52285;DHT22;38238;53.304;6.606;2022-08-02T09:47:26;25.60;90.70
52285;DHT22;38238;53.304;6.606;2022-08-02T09:49:57;25.40;90.50
52285;DHT22;38238;53.304;6.606;2022-08-02T09:52:30;25.30;90.70
52285;DHT22;38238;53.304;6.606;2022-08-02T09:55:04;25.10;90.90
52285;DHT22;38238;53.304;6.606;2022-08-02T09:57:30;25.00;91.10
52285;DHT22;38238;53.304;6.606;2022-08-02T09:59:58;24.80;91.10
52285;DHT22;38238;53.304;6.606;2022-08-02T10:02:24;24.80;91.00
52285;DHT22;38238;53.304;6.606;2022-08-02T10:04:51;25.00;91.30
52285;DHT22;38238;53.304;6.606;2022-08-02T10:07:17;25.10;91.10
52285;DHT22;38238;53.304;6.606;2022-08-02T10:09:44;25.20;90.90
52285;DHT22;38238;53.304;6.606;2022-08-02T10:12:11;25.30;91.10
52285;DHT22;38238;53.304;6.606;2022-08-02T10:14:37;25.40;91.00
52285;DHT22;38238;53.304;6.606;2022-08-02T10:17:05;25.50;91.00
52285;DHT22;38238;53.304;6.606;2022-08-02T10:19:31;25.70;91.20
52285;DHT22;38238;53.304;6.606;2022-08-02T10:22:09;25.90;91.40
52285;DHT22;38238;53.304;6.606;2022-08-02T10:24:39;25.90;91.00
52285;DHT22;38238;53.304;6.606;2022-08-02T10:27:17;25.90;91.00
52285;DHT22;38238;53.304;6.606;2022-08-02T10:29:46;25.90;91.30
52285;DHT22;38238;53.304;6.606;2022-08-02T10:32:18;26.10;91.50
52285;DHT22;38238;53.304;6.606;2022-08-02T10:34:52;26.10;91.10
52285;DHT22;38238;53.304;6.606;2022-08-02T10:37:20;26.00;90.60
52285;DHT22;38238;53.304;6.606;2022-08-02T10:39:45;26.00;91.00
52285;DHT22;38238;53.304;6.606;2022-08-02T10:42:12;26.20;91.50
52285;DHT22;38238;53.304;6.606;2022-08-02T10:45:12;26.30;91.40
52285;DHT22;38238;53.304;6.606;2022-08-02T10:47:56;26.40;91.10
52285;DHT22;38238;53.304;6.606;2022-08-02T10:53:32;26.20;91.00
52285;DHT22;38238;53.304;6.606;2022-08-02T10:56:01;26.30;91.60
52285;DHT22;38238;53.304;6.606;2022-08-02T10:58:28;26.40;91.60
52285;DHT22;38238;53.304;6.606;2022-08-02T11:00:57;26.40;91.60
52285;DHT22;38238;53.304;6.606;2022-08-02T11:06:08;26.50;91.90
52285;DHT22;38238;53.304;6.606;2022-08-02T11:08:34;26.50;91.40
52285;DHT22;38238;53.304;6.606;2022-08-02T11:11:15;26.50;91.60
52285;DHT22;38238;53.304;6.606;2022-08-02T11:14:03;26.50;91.20
52285;DHT22;38238;53.304;6.606;2022-08-02T11:19:19;26.40;91.30
52285;DHT22;38238;53.304;6.606;2022-08-02T11:22:01;26.70;91.80
52285;DHT22;38238;53.304;6.606;2022-08-02T11:24:32;26.70;91.40
52285;DHT22;38238;53.304;6.606;2022-08-02T11:27:06;26.60;91.10
52285;DHT22;38238;53.304;6.606;2022-08-02T11:29:43;26.50;91.50
52285;DHT22;38238;53.304;6.606;2022-08-02T11:32:20;26.40;91.30
52285;DHT22;38238;53.304;6.606;2022-08-02T11:34:49;26.40;91.10
52285;DHT22;38238;53.304;6.606;2022-08-02T11:37:32;26.30;90.80
52285;DHT22;38238;53.304;6.606;2022-08-02T11:40:00;26.20;90.90
52285;DHT22;38238;53.304;6.606;2022-08-02T11:42:46;26.10;91.10
52285;DHT22;38238;53.304;6.606;2022-08-02T11:45:15;26.10;91.20
52285;DHT22;38238;53.304;6.606;2022-08-02T11:47:50;26.10;91.10
52285;DHT22;38238;53.304;6.606;2022-08-02T11:50:16;26.10;91.60
52285;DHT22;38238;53.304;6.606;2022-08-02T11:52:43;26.20;91.70
52285;DHT22;38238;53.304;6.606;2022-08-02T11:55:10;26.20;91.60
52285;DHT22;38238;53.304;6.606;2022-08-02T11:57:37;26.30;91.80
52285;DHT22;38238;53.304;6.606;2022-08-02T12:00:15;26.40;91.90
52285;DHT22;38238;53.304;6.606;2022-08-02T12:02:46;26.40;92.10
52285;DHT22;38238;53.304;6.606;2022-08-02T12:05:17;26.50;91.90
52285;DHT22;38238;53.304;6.606;2022-08-02T12:07:44;26.60;91.40
52285;DHT22;38238;53.304;6.606;2022-08-02T12:10:15;26.60;91.30
52285;DHT22;38238;53.304;6.606;2022-08-02T12:12:51;26.50;91.30
52285;DHT22;38238;53.304;6.606;2022-08-02T12:15:34;26.40;91.50
52285;DHT22;38238;53.304;6.606;2022-08-02T12:18:03;26.20;91.60
52285;DHT22;38238;53.304;6.606;2022-08-02T12:20:51;26.10;92.00
52285;DHT22;38238;53.304;6.606;2022-08-02T12:23:17;26.10;92.10
52285;DHT22;38238;53.304;6.606;2022-08-02T12:25:42;26.00;92.30
52285;DHT22;38238;53.304;6.606;2022-08-02T12:28:21;25.90;92.50
52285;DHT22;38238;53.304;6.606;2022-08-02T12:30:58;25.80;92.70
52285;DHT22;38238;53.304;6.606;2022-08-02T12:33:26;25.80;92.80
52285;DHT22;38238;53.304;6.606;2022-08-02T12:35:53;25.70;92.90
52285;DHT22;38238;53.304;6.606;2022-08-02T12:38:18;25.60;93.10
52285;DHT22;38238;53.304;6.606;2022-08-02T12:40:45;25.50;93.20
52285;DHT22;38238;53.304;6.606;2022-08-02T12:43:22;25.40;93.30
52285;DHT22;38238;53.304;6.606;2022-08-02T12:45:51;25.40;93.60
52285;DHT22;38238;53.304;6.606;2022-08-02T12:48:32;25.30;93.80
52285;DHT22;38238;53.304;6.606;2022-08-02T12:50:59;25.30;94.00
52285;DHT22;38238;53.304;6.606;2022-08-02T12:53:42;25.30;94.10
52285;DHT22;38238;53.304;6.606;2022-08-02T12:56:08;25.30;93.90
52285;DHT22;38238;53.304;6.606;2022-08-02T12:58:49;25.20;93.80
52285;DHT22;38238;53.304;6.606;2022-08-02T13:01:22;25.20;94.00
52285;DHT22;38238;53.304;6.606;2022-08-02T13:03:48;25.20;94.10
52285;DHT22;38238;53.304;6.606;2022-08-02T13:06:14;25.20;94.20
52285;DHT22;38238;53.304;6.606;2022-08-02T13:08:40;25.20;94.30
52285;DHT22;38238;53.304;6.606;2022-08-02T13:11:06;25.20;94.50
52285;DHT22;38238;53.304;6.606;2022-08-02T13:13:31;25.20;94.40
52285;DHT22;38238;53.304;6.606;2022-08-02T13:15:57;25.20;94.60
52285;DHT22;38238;53.304;6.606;2022-08-02T13:18:23;25.20;94.60
52285;DHT22;38238;53.304;6.606;2022-08-02T13:20:49;25.20;94.70
52285;DHT22;38238;53.304;6.606;2022-08-02T13:23:15;25.20;94.80
52285;DHT22;38238;53.304;6.606;2022-08-02T13:25:41;25.10;94.90
52285;DHT22;38238;53.304;6.606;2022-08-02T13:28:07;25.10;95.00
52285;DHT22;38238;53.304;6.606;2022-08-02T13:30:33;25.00;95.10
52285;DHT22;38238;53.304;6.606;2022-08-02T13:32:58;25.10;95.40
52285;DHT22;38238;53.304;6.606;2022-08-02T13:35:24;25.10;95.60
52285;DHT22;38238;53.304;6.606;2022-08-02T13:37:50;25.20;96.00
52285;DHT22;38238;53.304;6.606;2022-08-02T13:40:15;25.20;95.70
52285;DHT22;38238;53.304;6.606;2022-08-02T13:42:41;25.30;95.70
52285;DHT22;38238;53.304;6.606;2022-08-02T13:45:08;25.30;95.30
52285;DHT22;38238;53.304;6.606;2022-08-02T13:47:35;25.40;95.00
52285;DHT22;38238;53.304;6.606;2022-08-02T13:50:02;25.40;94.80
52285;DHT22;38238;53.304;6.606;2022-08-02T13:52:28;25.40;94.70
52285;DHT22;38238;53.304;6.606;2022-08-02T13:54:53;25.50;94.70
52285;DHT22;38238;53.304;6.606;2022-08-02T13:57:19;25.50;94.90
52285;DHT22;38238;53.304;6.606;2022-08-02T13:59:45;25.60;94.60
52285;DHT22;38238;53.304;6.606;2022-08-02T14:02:10;25.60;94.30
52285;DHT22;38238;53.304;6.606;2022-08-02T14:04:36;25.50;94.30
52285;DHT22;38238;53.304;6.606;2022-08-02T14:07:03;25.40;94.30
52285;DHT22;38238;53.304;6.606;2022-08-02T14:09:29;25.40;94.20
52285;DHT22;38238;53.304;6.606;2022-08-02T14:11:58;25.30;94.30
52285;DHT22;38238;53.304;6.606;2022-08-02T14:14:24;25.40;94.40
52285;DHT22;38238;53.304;6.606;2022-08-02T14:16:51;25.50;94.50
52285;DHT22;38238;53.304;6.606;2022-08-02T14:19:17;25.50;94.80
52285;DHT22;38238;53.304;6.606;2022-08-02T14:21:46;25.60;94.60
52285;DHT22;38238;53.304;6.606;2022-08-02T14:24:12;25.70;94.50
52285;DHT22;38238;53.304;6.606;2022-08-02T14:26:38;25.70;94.40
52285;DHT22;38238;53.304;6.606;2022-08-02T14:29:04;25.70;94.50
52285;DHT22;38238;53.304;6.606;2022-08-02T14:31:29;25.80;94.70
52285;DHT22;38238;53.304;6.606;2022-08-02T14:33:55;25.70;94.40
52285;DHT22;38238;53.304;6.606;2022-08-02T14:36:21;25.70;94.30
52285;DHT22;38238;53.304;6.606;2022-08-02T14:38:46;25.70;94.30
52285;DHT22;38238;53.304;6.606;2022-08-02T14:41:12;25.60;94.20
52285;DHT22;38238;53.304;6.606;2022-08-02T14:43:38;25.60;94.10
52285;DHT22;38238;53.304;6.606;2022-08-02T14:46:22;25.50;93.90
52285;DHT22;38238;53.304;6.606;2022-08-02T14:48:47;25.40;94.10
52285;DHT22;38238;53.304;6.606;2022-08-02T14:51:13;25.40;94.20
52285;DHT22;38238;53.304;6.606;2022-08-02T14:53:39;25.40;94.10
52285;DHT22;38238;53.304;6.606;2022-08-02T14:56:05;25.50;93.80
52285;DHT22;38238;53.304;6.606;2022-08-02T14:58:31;25.50;94.00
52285;DHT22;38238;53.304;6.606;2022-08-02T15:00:57;25.60;94.20
52285;DHT22;38238;53.304;6.606;2022-08-02T15:03:22;25.70;94.20
52285;DHT22;38238;53.304;6.606;2022-08-02T15:05:48;25.80;94.30
52285;DHT22;38238;53.304;6.606;2022-08-02T15:08:14;26.00;94.10
52285;DHT22;38238;53.304;6.606;2022-08-02T15:10:39;25.90;93.80
52285;DHT22;38238;53.304;6.606;2022-08-02T15:13:05;25.90;94.10
52285;DHT22;38238;53.304;6.606;2022-08-02T15:15:31;25.80;94.00
52285;DHT22;38238;53.304;6.606;2022-08-02T15:17:56;25.80;93.80
52285;DHT22;38238;53.304;6.606;2022-08-02T15:20:22;25.70;93.90
52285;DHT22;38238;53.304;6.606;2022-08-02T15:22:48;25.70;93.80
52285;DHT22;38238;53.304;6.606;2022-08-02T15:25:14;25.70;93.80
52285;DHT22;38238;53.304;6.606;2022-08-02T15:27:41;25.90;94.00
52285;DHT22;38238;53.304;6.606;2022-08-02T15:30:07;26.20;93.40
52285;DHT22;38238;53.304;6.606;2022-08-02T15:32:33;26.40;93.20
52285;DHT22;38238;53.304;6.606;2022-08-02T15:34:59;26.60;93.10
52285;DHT22;38238;53.304;6.606;2022-08-02T15:37:25;26.60;92.70
52285;DHT22;38238;53.304;6.606;2022-08-02T15:39:50;26.60;92.40
52285;DHT22;38238;53.304;6.606;2022-08-02T15:42:16;26.50;92.00
52285;DHT22;38238;53.304;6.606;2022-08-02T15:44:43;26.50;92.30
52285;DHT22;38238;53.304;6.606;2022-08-02T15:47:09;26.50;92.50
52285;DHT22;38238;53.304;6.606;2022-08-02T15:49:36;26.50;92.30
52285;DHT22;38238;53.304;6.606;2022-08-02T15:52:01;26.50;92.30